sensor_id;sensor_type;location;lat;lon;timestamp;P1;durP1;ratioP1;P2;durP2;ratioP2
16029;SDS011;34770;49.272;11.070;2023-10-19T00:01:06;24.67;;;20.42;;
16029;SDS011;34770;49.272;11.070;2023-10-19T00:03:32;26.95;;;21.30;;
16029;SDS011;34770;49.272;11.070;2023-10-19T00:05:58;25.70;;;19.42;;
16029;SDS011;34770;49.272;11.070;2023-10-19T00:08:23;31.45;;;22.77;;
16029;SDS011;34770;49.272;11.070;2023-10-19T00:10:50;28.40;;;21.20;;
16029;SDS011;34770;49.272;11.070;2023-10-19T00:13:28;28.17;;;21.77;;
16029;SDS011;34770;49.272;11.070;2023-10-19T00:15:55;28.17;;;21.27;;
16029;SDS011;34770;49.272;11.070;2023-10-19T00:18:22;29.10;;;21.60;;
16029;SDS011;34770;49.272;11.070;2023-10-19T00:20:50;32.67;;;22.77;;
16029;SDS011;34770;49.272;11.070;2023-10-19T00:23:25;25.35;;;20.52;;
16029;SDS011;34770;49.272;11.070;2023-10-19T00:26:00;27.48;;;21.42;;
16029;SDS011;34770;49.272;11.070;2023-10-19T00:28:33;28.00;;;20.08;;
16029;SDS011;34770;49.272;11.070;2023-10-19T00:31:00;25.83;;;19.83;;
16029;SDS011;34770;49.272;11.070;2023-10-19T00:33:29;24.27;;;18.48;;
16029;SDS011;34770;49.272;11.070;2023-10-19T00:35:55;25.42;;;19.40;;
16029;SDS011;34770;49.272;11.070;2023-10-19T00:38:36;26.10;;;18.02;;
16029;SDS011;34770;49.272;11.070;2023-10-19T00:41:02;25.58;;;19.83;;
16029;SDS011;34770;49.272;11.070;2023-10-19T00:43:35;23.90;;;18.73;;
16029;SDS011;34770;49.272;11.070;2023-10-19T00:46:10;24.75;;;17.95;;
16029;SDS011;34770;49.272;11.070;2023-10-19T00:51:20;23.08;;;18.25;;
16029;SDS011;34770;49.272;11.070;2023-10-19T00:53:56;23.50;;;18.90;;
16029;SDS011;34770;49.272;11.070;2023-10-19T00:56:24;25.83;;;19.23;;
16029;SDS011;34770;49.272;11.070;2023-10-19T00:58:57;25.80;;;18.95;;
16029;SDS011;34770;49.272;11.070;2023-10-19T01:01:32;23.27;;;18.83;;
16029;SDS011;34770;49.272;11.070;2023-10-19T01:04:05;24.30;;;18.30;;
16029;SDS011;34770;49.272;11.070;2023-10-19T01:06:31;22.77;;;18.50;;
16029;SDS011;34770;49.272;11.070;2023-10-19T01:08:58;23.35;;;18.23;;
16029;SDS011;34770;49.272;11.070;2023-10-19T01:11:23;25.35;;;19.50;;
16029;SDS011;34770;49.272;11.070;2023-10-19T01:13:53;24.08;;;19.15;;
16029;SDS011;34770;49.272;11.070;2023-10-19T01:16:19;24.38;;;19.30;;
16029;SDS011;34770;49.272;11.070;2023-10-19T01:18:50;27.02;;;19.88;;
16029;SDS011;34770;49.272;11.070;2023-10-19T01:21:27;23.45;;;18.75;;
16029;SDS011;34770;49.272;11.070;2023-10-19T01:24:05;27.80;;;20.35;;
16029;SDS011;34770;49.272;11.070;2023-10-19T01:26:32;28.88;;;19.58;;
16029;SDS011;34770;49.272;11.070;2023-10-19T01:29:02;24.92;;;19.05;;
16029;SDS011;34770;49.272;11.070;2023-10-19T01:31:37;23.30;;;19.40;;
16029;SDS011;34770;49.272;11.070;2023-10-19T01:34:04;26.48;;;19.70;;
16029;SDS011;34770;49.272;11.070;2023-10-19T01:36:31;27.58;;;21.70;;
16029;SDS011;34770;49.272;11.070;2023-10-19T01:39:23;27.95;;;20.23;;
16029;SDS011;34770;49.272;11.070;2023-10-19T01:41:48;26.55;;;21.10;;
16029;SDS011;34770;49.272;11.070;2023-10-19T01:44:15;24.02;;;19.60;;
16029;SDS011;34770;49.272;11.070;2023-10-19T01:46:42;28.73;;;20.70;;
16029;SDS011;34770;49.272;11.070;2023-10-19T01:49:10;27.45;;;19.58;;
16029;SDS011;34770;49.272;11.070;2023-10-19T01:51:36;25.42;;;20.38;;
16029;SDS011;34770;49.272;11.070;2023-10-19T01:54:07;27.58;;;20.58;;
16029;SDS011;34770;49.272;11.070;2023-10-19T01:56:33;24.40;;;19.55;;
16029;SDS011;34770;49.272;11.070;2023-10-19T01:59:00;28.10;;;20.40;;
16029;SDS011;34770;49.272;11.070;2023-10-19T02:01:28;26.27;;;19.98;;
16029;SDS011;34770;49.272;11.070;2023-10-19T02:03:58;29.60;;;21.67;;
16029;SDS011;34770;49.272;11.070;2023-10-19T02:06:25;28.20;;;21.20;;
16029;SDS011;34770;49.272;11.070;2023-10-19T02:09:02;27.08;;;20.58;;
16029;SDS011;34770;49.272;11.070;2023-10-19T02:11:34;31.35;;;21.15;;
16029;SDS011;34770;49.272;11.070;2023-10-19T02:14:06;26.10;;;20.65;;
16029;SDS011;34770;49.272;11.070;2023-10-19T02:16:39;30.80;;;22.23;;
16029;SDS011;34770;49.272;11.070;2023-10-19T02:19:09;30.27;;;21.52;;
16029;SDS011;34770;49.272;11.070;2023-10-19T02:21:34;30.08;;;22.15;;
16029;SDS011;34770;49.272;11.070;2023-10-19T02:24:04;31.25;;;23.10;;
16029;SDS011;34770;49.272;11.070;2023-10-19T02:26:34;28.52;;;21.42;;
16029;SDS011;34770;49.272;11.070;2023-10-19T02:29:02;30.40;;;21.63;;
16029;SDS011;34770;49.272;11.070;2023-10-19T02:31:33;29.35;;;21.05;;
16029;SDS011;34770;49.272;11.070;2023-10-19T02:33:59;28.10;;;21.40;;
16029;SDS011;34770;49.272;11.070;2023-10-19T02:36:25;31.63;;;22.23;;
16029;SDS011;34770;49.272;11.070;2023-10-19T02:39:00;29.05;;;22.38;;
16029;SDS011;34770;49.272;11.070;2023-10-19T02:41:36;32.22;;;21.60;;
16029;SDS011;34770;49.272;11.070;2023-10-19T02:44:10;29.58;;;21.58;;
16029;SDS011;34770;49.272;11.070;2023-10-19T02:46:44;27.80;;;20.15;;
16029;SDS011;34770;49.272;11.070;2023-10-19T02:49:11;28.10;;;20.27;;
16029;SDS011;34770;49.272;11.070;2023-10-19T02:51:39;26.77;;;21.92;;
16029;SDS011;34770;49.272;11.070;2023-10-19T02:54:07;33.65;;;24.08;;
16029;SDS011;34770;49.272;11.070;2023-10-19T02:56:33;29.55;;;22.65;;
16029;SDS011;34770;49.272;11.070;2023-10-19T02:59:02;29.42;;;22.52;;
16029;SDS011;34770;49.272;11.070;2023-10-19T03:01:31;30.02;;;22.48;;
16029;SDS011;34770;49.272;11.070;2023-10-19T03:03:59;29.23;;;21.63;;
16029;SDS011;34770;49.272;11.070;2023-10-19T03:06:26;29.27;;;22.85;;
16029;SDS011;34770;49.272;11.070;2023-10-19T03:08:57;30.00;;;21.02;;
16029;SDS011;34770;49.272;11.070;2023-10-19T03:11:26;30.90;;;22.80;;
16029;SDS011;34770;49.272;11.070;2023-10-19T03:13:54;27.67;;;22.27;;
16029;SDS011;34770;49.272;11.070;2023-10-19T03:16:21;29.58;;;22.42;;
16029;SDS011;34770;49.272;11.070;2023-10-19T03:18:47;30.00;;;21.75;;
16029;SDS011;34770;49.272;11.070;2023-10-19T03:21:12;33.58;;;24.98;;
16029;SDS011;34770;49.272;11.070;2023-10-19T03:23:38;34.75;;;22.65;;
16029;SDS011;34770;49.272;11.070;2023-10-19T03:26:03;31.98;;;22.85;;
16029;SDS011;34770;49.272;11.070;2023-10-19T03:28:47;32.53;;;23.75;;
16029;SDS011;34770;49.272;11.070;2023-10-19T03:31:13;29.35;;;21.05;;
16029;SDS011;34770;49.272;11.070;2023-10-19T03:33:43;30.73;;;23.10;;
16029;SDS011;34770;49.272;11.070;2023-10-19T03:36:31;30.55;;;22.85;;
16029;SDS011;34770;49.272;11.070;2023-10-19T03:38:57;31.70;;;23.80;;
16029;SDS011;34770;49.272;11.070;2023-10-19T03:41:29;29.65;;;21.83;;
16029;SDS011;34770;49.272;11.070;2023-10-19T03:44:00;33.42;;;24.58;;
16029;SDS011;34770;49.272;11.070;2023-10-19T03:46:26;33.38;;;25.08;;
16029;SDS011;34770;49.272;11.070;2023-10-19T03:49:02;39.25;;;24.98;;
16029;SDS011;34770;49.272;11.070;2023-10-19T03:51:39;33.05;;;24.98;;
16029;SDS011;34770;49.272;11.070;2023-10-19T03:54:23;32.35;;;23.27;;
16029;SDS011;34770;49.272;11.070;2023-10-19T03:56:50;32.75;;;25.35;;
16029;SDS011;34770;49.272;11.070;2023-10-19T03:59:16;31.83;;;23.17;;
16029;SDS011;34770;49.272;11.070;2023-10-19T04:01:42;31.00;;;24.17;;
16029;SDS011;34770;49.272;11.070;2023-10-19T04:04:08;29.80;;;23.42;;
16029;SDS011;34770;49.272;11.070;2023-10-19T04:06:34;30.77;;;23.38;;
16029;SDS011;34770;49.272;11.070;2023-10-19T04:09:00;31.45;;;24.25;;
16029;SDS011;34770;49.272;11.070;2023-10-19T04:11:26;31.23;;;23.48;;
16029;SDS011;34770;49.272;11.070;2023-10-19T04:13:57;30.98;;;24.33;;
16029;SDS011;34770;49.272;11.070;2023-10-19T04:16:28;29.73;;;23.30;;
16029;SDS011;34770;49.272;11.070;2023-10-19T04:18:53;27.63;;;22.40;;
16029;SDS011;34770;49.272;11.070;2023-10-19T04:21:19;28.10;;;22.85;;
16029;SDS011;34770;49.272;11.070;2023-10-19T04:23:45;31.60;;;23.20;;
16029;SDS011;34770;49.272;11.070;2023-10-19T04:26:11;28.10;;;22.38;;
16029;SDS011;34770;49.272;11.070;2023-10-19T04:28:40;32.83;;;24.08;;
16029;SDS011;34770;49.272;11.070;2023-10-19T04:31:14;28.52;;;23.35;;
16029;SDS011;34770;49.272;11.070;2023-10-19T04:33:41;30.63;;;24.30;;
16029;SDS011;34770;49.272;11.070;2023-10-19T04:36:13;32.92;;;23.67;;
16029;SDS011;34770;49.272;11.070;2023-10-19T04:38:39;29.38;;;23.92;;
16029;SDS011;34770;49.272;11.070;2023-10-19T04:41:08;27.98;;;22.38;;
16029;SDS011;34770;49.272;11.070;2023-10-19T04:43:35;29.95;;;23.52;;
16029;SDS011;34770;49.272;11.070;2023-10-19T04:46:13;29.15;;;22.63;;
16029;SDS011;34770;49.272;11.070;2023-10-19T04:48:41;29.00;;;21.48;;
16029;SDS011;34770;49.272;11.070;2023-10-19T04:51:07;25.13;;;22.17;;
16029;SDS011;34770;49.272;11.070;2023-10-19T04:53:34;30.70;;;23.55;;
16029;SDS011;34770;49.272;11.070;2023-10-19T04:55:59;28.10;;;22.58;;
16029;SDS011;34770;49.272;11.070;2023-10-19T04:58:26;30.50;;;23.50;;
16029;SDS011;34770;49.272;11.070;2023-10-19T05:00:54;30.42;;;23.88;;
16029;SDS011;34770;49.272;11.070;2023-10-19T05:03:20;33.08;;;25.33;;
16029;SDS011;34770;49.272;11.070;2023-10-19T05:05:46;29.30;;;23.30;;
16029;SDS011;34770;49.272;11.070;2023-10-19T05:08:12;28.92;;;23.45;;
16029;SDS011;34770;49.272;11.070;2023-10-19T05:10:37;32.33;;;23.55;;
16029;SDS011;34770;49.272;11.070;2023-10-19T05:13:03;31.83;;;24.58;;
16029;SDS011;34770;49.272;11.070;2023-10-19T05:15:29;29.63;;;22.98;;
16029;SDS011;34770;49.272;11.070;2023-10-19T05:17:54;31.88;;;24.35;;
16029;SDS011;34770;49.272;11.070;2023-10-19T05:20:20;30.15;;;24.73;;
16029;SDS011;34770;49.272;11.070;2023-10-19T05:22:46;31.00;;;24.02;;
16029;SDS011;34770;49.272;11.070;2023-10-19T05:25:12;26.55;;;20.98;;
16029;SDS011;34770;49.272;11.070;2023-10-19T05:27:38;29.73;;;24.70;;
16029;SDS011;34770;49.272;11.070;2023-10-19T05:30:04;33.25;;;24.05;;
16029;SDS011;34770;49.272;11.070;2023-10-19T05:32:30;31.10;;;22.70;;
16029;SDS011;34770;49.272;11.070;2023-10-19T05:34:56;29.75;;;22.80;;
16029;SDS011;34770;49.272;11.070;2023-10-19T05:37:22;29.75;;;21.85;;
16029;SDS011;34770;49.272;11.070;2023-10-19T05:39:47;28.05;;;21.80;;
16029;SDS011;34770;49.272;11.070;2023-10-19T05:42:16;34.13;;;24.98;;
16029;SDS011;34770;49.272;11.070;2023-10-19T05:44:42;33.70;;;23.83;;
16029;SDS011;34770;49.272;11.070;2023-10-19T05:47:07;33.63;;;25.20;;
16029;SDS011;34770;49.272;11.070;2023-10-19T05:49:33;30.33;;;23.63;;
16029;SDS011;34770;49.272;11.070;2023-10-19T05:51:59;29.50;;;23.35;;
16029;SDS011;34770;49.272;11.070;2023-10-19T05:54:24;31.42;;;23.52;;
16029;SDS011;34770;49.272;11.070;2023-10-19T05:56:49;32.60;;;24.50;;
16029;SDS011;34770;49.272;11.070;2023-10-19T05:59:15;33.65;;;23.35;;
16029;SDS011;34770;49.272;11.070;2023-10-19T06:01:40;33.35;;;24.50;;
16029;SDS011;34770;49.272;11.070;2023-10-19T06:04:06;29.98;;;23.00;;
16029;SDS011;34770;49.272;11.070;2023-10-19T06:06:32;44.97;;;30.38;;
16029;SDS011;34770;49.272;11.070;2023-10-19T06:08:57;42.65;;;30.85;;
16029;SDS011;34770;49.272;11.070;2023-10-19T06:11:23;50.35;;;33.28;;
16029;SDS011;34770;49.272;11.070;2023-10-19T06:13:48;66.13;;;44.17;;
16029;SDS011;34770;49.272;11.070;2023-10-19T06:16:14;35.97;;;25.75;;
16029;SDS011;34770;49.272;11.070;2023-10-19T06:18:39;37.38;;;28.33;;
16029;SDS011;34770;49.272;11.070;2023-10-19T06:21:05;34.17;;;26.95;;
16029;SDS011;34770;49.272;11.070;2023-10-19T06:23:30;31.88;;;24.58;;
16029;SDS011;34770;49.272;11.070;2023-10-19T06:25:58;34.08;;;24.83;;
16029;SDS011;34770;49.272;11.070;2023-10-19T06:28:25;33.05;;;25.33;;
16029;SDS011;34770;49.272;11.070;2023-10-19T06:30:50;34.70;;;24.55;;
16029;SDS011;34770;49.272;11.070;2023-10-19T06:33:15;34.95;;;24.58;;
16029;SDS011;34770;49.272;11.070;2023-10-19T06:35:41;30.98;;;25.33;;
16029;SDS011;34770;49.272;11.070;2023-10-19T06:38:06;28.02;;;22.27;;
16029;SDS011;34770;49.272;11.070;2023-10-19T06:40:34;27.98;;;21.80;;
16029;SDS011;34770;49.272;11.070;2023-10-19T06:43:03;30.05;;;22.50;;
16029;SDS011;34770;49.272;11.070;2023-10-19T06:45:30;49.95;;;23.73;;
16029;SDS011;34770;49.272;11.070;2023-10-19T06:47:56;29.08;;;22.70;;
16029;SDS011;34770;49.272;11.070;2023-10-19T06:50:23;27.67;;;22.52;;
16029;SDS011;34770;49.272;11.070;2023-10-19T06:52:51;31.02;;;24.30;;
16029;SDS011;34770;49.272;11.070;2023-10-19T06:55:17;34.28;;;25.65;;
16029;SDS011;34770;49.272;11.070;2023-10-19T06:57:48;31.13;;;25.15;;
16029;SDS011;34770;49.272;11.070;2023-10-19T07:00:15;31.02;;;23.02;;
16029;SDS011;34770;49.272;11.070;2023-10-19T07:02:46;32.53;;;26.67;;
16029;SDS011;34770;49.272;11.070;2023-10-19T07:05:13;29.88;;;23.02;;
16029;SDS011;34770;49.272;11.070;2023-10-19T07:07:43;30.02;;;23.90;;
16029;SDS011;34770;49.272;11.070;2023-10-19T07:10:10;28.08;;;22.98;;
16029;SDS011;34770;49.272;11.070;2023-10-19T07:12:40;28.67;;;21.38;;
16029;SDS011;34770;49.272;11.070;2023-10-19T07:15:09;28.63;;;21.98;;
16029;SDS011;34770;49.272;11.070;2023-10-19T07:17:44;27.25;;;22.20;;
16029;SDS011;34770;49.272;11.070;2023-10-19T07:20:11;32.42;;;22.38;;
16029;SDS011;34770;49.272;11.070;2023-10-19T07:22:56;27.30;;;20.80;;
16029;SDS011;34770;49.272;11.070;2023-10-19T07:25:43;28.17;;;22.05;;
16029;SDS011;34770;49.272;11.070;2023-10-19T07:28:10;29.70;;;23.30;;
16029;SDS011;34770;49.272;11.070;2023-10-19T07:30:37;27.25;;;21.52;;
16029;SDS011;34770;49.272;11.070;2023-10-19T07:33:03;29.40;;;22.05;;
16029;SDS011;34770;49.272;11.070;2023-10-19T07:35:33;33.15;;;23.20;;
16029;SDS011;34770;49.272;11.070;2023-10-19T07:37:59;26.90;;;21.38;;
16029;SDS011;34770;49.272;11.070;2023-10-19T07:40:26;27.25;;;22.02;;
16029;SDS011;34770;49.272;11.070;2023-10-19T07:42:52;27.00;;;21.00;;
16029;SDS011;34770;49.272;11.070;2023-10-19T07:45:19;27.85;;;20.70;;
16029;SDS011;34770;49.272;11.070;2023-10-19T07:47:44;25.88;;;20.60;;
16029;SDS011;34770;49.272;11.070;2023-10-19T07:50:13;25.23;;;19.65;;
16029;SDS011;34770;49.272;11.070;2023-10-19T07:52:43;25.83;;;20.75;;
16029;SDS011;34770;49.272;11.070;2023-10-19T07:55:09;24.83;;;19.92;;
16029;SDS011;34770;49.272;11.070;2023-10-19T07:57:34;26.77;;;20.80;;
16029;SDS011;34770;49.272;11.070;2023-10-19T08:00:00;25.25;;;20.38;;
16029;SDS011;34770;49.272;11.070;2023-10-19T08:02:25;23.55;;;19.77;;
16029;SDS011;34770;49.272;11.070;2023-10-19T08:04:52;23.52;;;18.23;;
16029;SDS011;34770;49.272;11.070;2023-10-19T08:07:17;25.73;;;20.27;;
16029;SDS011;34770;49.272;11.070;2023-10-19T08:09:44;26.40;;;20.88;;
16029;SDS011;34770;49.272;11.070;2023-10-19T08:12:09;26.08;;;21.13;;
16029;SDS011;34770;49.272;11.070;2023-10-19T08:14:36;25.25;;;20.33;;
16029;SDS011;34770;49.272;11.070;2023-10-19T08:17:01;22.98;;;20.00;;
16029;SDS011;34770;49.272;11.070;2023-10-19T08:19:28;23.52;;;18.77;;
16029;SDS011;34770;49.272;11.070;2023-10-19T08:21:56;24.67;;;19.63;;
16029;SDS011;34770;49.272;11.070;2023-10-19T08:24:22;26.08;;;20.80;;
16029;SDS011;34770;49.272;11.070;2023-10-19T08:26:48;24.50;;;20.55;;
16029;SDS011;34770;49.272;11.070;2023-10-19T08:29:14;26.92;;;19.45;;
16029;SDS011;34770;49.272;11.070;2023-10-19T08:31:42;23.90;;;18.77;;
16029;SDS011;34770;49.272;11.070;2023-10-19T08:34:10;23.17;;;19.13;;
16029;SDS011;34770;49.272;11.070;2023-10-19T08:36:37;23.58;;;18.85;;
16029;SDS011;34770;49.272;11.070;2023-10-19T08:39:04;22.42;;;17.77;;
16029;SDS011;34770;49.272;11.070;2023-10-19T08:41:31;22.08;;;17.75;;
16029;SDS011;34770;49.272;11.070;2023-10-19T08:43:57;21.80;;;17.67;;
16029;SDS011;34770;49.272;11.070;2023-10-19T08:46:24;21.10;;;17.58;;
16029;SDS011;34770;49.272;11.070;2023-10-19T08:48:50;20.80;;;17.10;;
16029;SDS011;34770;49.272;11.070;2023-10-19T08:51:18;24.42;;;17.80;;
16029;SDS011;34770;49.272;11.070;2023-10-19T08:53:44;21.95;;;17.83;;
16029;SDS011;34770;49.272;11.070;2023-10-19T08:56:11;21.50;;;18.27;;
16029;SDS011;34770;49.272;11.070;2023-10-19T08:58:37;22.63;;;17.60;;
16029;SDS011;34770;49.272;11.070;2023-10-19T09:01:03;22.92;;;17.90;;
16029;SDS011;34770;49.272;11.070;2023-10-19T09:03:31;20.77;;;16.83;;
16029;SDS011;34770;49.272;11.070;2023-10-19T09:06:01;23.20;;;18.75;;
16029;SDS011;34770;49.272;11.070;2023-10-19T09:08:27;23.50;;;16.77;;
16029;SDS011;34770;49.272;11.070;2023-10-19T09:11:12;22.45;;;17.23;;
16029;SDS011;34770;49.272;11.070;2023-10-19T09:13:42;20.58;;;16.05;;
16029;SDS011;34770;49.272;11.070;2023-10-19T09:16:18;18.33;;;16.27;;
16029;SDS011;34770;49.272;11.070;2023-10-19T09:18:48;20.92;;;16.50;;
16029;SDS011;34770;49.272;11.070;2023-10-19T09:21:16;28.13;;;19.60;;
16029;SDS011;34770;49.272;11.070;2023-10-19T09:23:52;24.80;;;18.38;;
16029;SDS011;34770;49.272;11.070;2023-10-19T09:26:19;21.60;;;16.83;;
16029;SDS011;34770;49.272;11.070;2023-10-19T09:28:47;20.23;;;16.15;;
16029;SDS011;34770;49.272;11.070;2023-10-19T09:31:14;22.63;;;17.35;;
16029;SDS011;34770;49.272;11.070;2023-10-19T09:33:41;22.10;;;16.83;;
16029;SDS011;34770;49.272;11.070;2023-10-19T09:36:08;21.52;;;16.77;;
16029;SDS011;34770;49.272;11.070;2023-10-19T09:38:39;19.65;;;16.88;;
16029;SDS011;34770;49.272;11.070;2023-10-19T09:41:08;22.10;;;15.73;;
16029;SDS011;34770;49.272;11.070;2023-10-19T09:43:37;23.17;;;16.80;;
16029;SDS011;34770;49.272;11.070;2023-10-19T09:46:06;21.67;;;16.80;;
16029;SDS011;34770;49.272;11.070;2023-10-19T09:48:42;21.13;;;17.70;;
16029;SDS011;34770;49.272;11.070;2023-10-19T09:51:11;21.75;;;17.42;;
16029;SDS011;34770;49.272;11.070;2023-10-19T09:53:37;20.48;;;16.30;;
16029;SDS011;34770;49.272;11.070;2023-10-19T09:56:06;19.23;;;16.95;;
16029;SDS011;34770;49.272;11.070;2023-10-19T09:58:39;21.80;;;17.73;;
16029;SDS011;34770;49.272;11.070;2023-10-19T10:01:10;20.42;;;15.68;;
16029;SDS011;34770;49.272;11.070;2023-10-19T10:03:42;19.73;;;16.77;;
16029;SDS011;34770;49.272;11.070;2023-10-19T10:06:09;22.23;;;17.58;;
16029;SDS011;34770;49.272;11.070;2023-10-19T10:08:35;18.92;;;16.13;;
16029;SDS011;34770;49.272;11.070;2023-10-19T10:13:41;20.55;;;16.63;;
16029;SDS011;34770;49.272;11.070;2023-10-19T10:16:08;23.33;;;16.65;;
16029;SDS011;34770;49.272;11.070;2023-10-19T10:18:34;18.60;;;16.17;;
16029;SDS011;34770;49.272;11.070;2023-10-19T10:23:53;21.17;;;17.35;;
16029;SDS011;34770;49.272;11.070;2023-10-19T10:26:24;20.90;;;17.40;;
16029;SDS011;34770;49.272;11.070;2023-10-19T10:31:46;20.65;;;16.30;;
16029;SDS011;34770;49.272;11.070;2023-10-19T10:39:33;22.90;;;16.45;;
16029;SDS011;34770;49.272;11.070;2023-10-19T10:42:02;19.40;;;15.93;;
16029;SDS011;34770;49.272;11.070;2023-10-19T10:47:10;21.50;;;16.70;;
16029;SDS011;34770;49.272;11.070;2023-10-19T10:49:46;28.60;;;20.85;;
16029;SDS011;34770;49.272;11.070;2023-10-19T10:55:07;20.05;;;16.25;;
16029;SDS011;34770;49.272;11.070;2023-10-19T10:57:36;19.00;;;15.23;;
16029;SDS011;34770;49.272;11.070;2023-10-19T11:00:05;19.13;;;16.48;;
16029;SDS011;34770;49.272;11.070;2023-10-19T11:02:45;33.42;;;21.30;;
16029;SDS011;34770;49.272;11.070;2023-10-19T11:05:13;22.33;;;18.83;;
16029;SDS011;34770;49.272;11.070;2023-10-19T11:07:40;32.95;;;21.88;;
16029;SDS011;34770;49.272;11.070;2023-10-19T11:10:06;21.48;;;16.08;;
16029;SDS011;34770;49.272;11.070;2023-10-19T11:12:35;22.70;;;18.75;;
16029;SDS011;34770;49.272;11.070;2023-10-19T11:15:01;19.98;;;16.00;;
16029;SDS011;34770;49.272;11.070;2023-10-19T11:17:34;18.30;;;15.73;;
16029;SDS011;34770;49.272;11.070;2023-10-19T11:20:08;17.45;;;15.48;;
16029;SDS011;34770;49.272;11.070;2023-10-19T11:22:44;17.73;;;15.02;;
16029;SDS011;34770;49.272;11.070;2023-10-19T11:27:49;18.58;;;13.55;;
16029;SDS011;34770;49.272;11.070;2023-10-19T11:30:35;16.98;;;14.05;;
16029;SDS011;34770;49.272;11.070;2023-10-19T11:33:00;14.25;;;12.40;;
16029;SDS011;34770;49.272;11.070;2023-10-19T11:35:29;16.45;;;13.15;;
16029;SDS011;34770;49.272;11.070;2023-10-19T11:37:56;16.73;;;13.80;;
16029;SDS011;34770;49.272;11.070;2023-10-19T11:40:24;15.63;;;13.32;;
16029;SDS011;34770;49.272;11.070;2023-10-19T11:42:51;16.63;;;13.70;;
16029;SDS011;34770;49.272;11.070;2023-10-19T11:45:17;14.25;;;12.50;;
16029;SDS011;34770;49.272;11.070;2023-10-19T11:47:44;14.02;;;12.48;;
16029;SDS011;34770;49.272;11.070;2023-10-19T11:50:10;15.95;;;12.63;;
16029;SDS011;34770;49.272;11.070;2023-10-19T11:52:43;14.23;;;12.70;;
16029;SDS011;34770;49.272;11.070;2023-10-19T11:55:10;13.75;;;11.80;;
16029;SDS011;34770;49.272;11.070;2023-10-19T11:57:38;15.73;;;12.75;;
16029;SDS011;34770;49.272;11.070;2023-10-19T12:00:05;15.35;;;11.52;;
16029;SDS011;34770;49.272;11.070;2023-10-19T12:02:37;16.73;;;11.93;;
16029;SDS011;34770;49.272;11.070;2023-10-19T12:05:03;16.00;;;11.98;;
16029;SDS011;34770;49.272;11.070;2023-10-19T12:07:34;14.57;;;11.93;;
16029;SDS011;34770;49.272;11.070;2023-10-19T12:10:01;14.02;;;11.40;;
16029;SDS011;34770;49.272;11.070;2023-10-19T12:12:28;16.15;;;12.07;;
16029;SDS011;34770;49.272;11.070;2023-10-19T12:14:53;15.85;;;12.68;;
16029;SDS011;34770;49.272;11.070;2023-10-19T12:17:20;13.60;;;11.85;;
16029;SDS011;34770;49.272;11.070;2023-10-19T12:19:47;13.15;;;11.20;;
16029;SDS011;34770;49.272;11.070;2023-10-19T12:22:12;12.90;;;11.00;;
16029;SDS011;34770;49.272;11.070;2023-10-19T12:24:38;13.35;;;11.10;;
16029;SDS011;34770;49.272;11.070;2023-10-19T12:27:03;13.15;;;11.43;;
16029;SDS011;34770;49.272;11.070;2023-10-19T12:29:29;12.27;;;10.68;;
16029;SDS011;34770;49.272;11.070;2023-10-19T12:31:56;15.10;;;11.50;;
16029;SDS011;34770;49.272;11.070;2023-10-19T12:34:22;12.48;;;11.18;;
16029;SDS011;34770;49.272;11.070;2023-10-19T12:36:47;13.02;;;11.50;;
16029;SDS011;34770;49.272;11.070;2023-10-19T12:39:14;13.18;;;10.75;;
16029;SDS011;34770;49.272;11.070;2023-10-19T12:41:59;15.10;;;12.95;;
16029;SDS011;34770;49.272;11.070;2023-10-19T12:44:26;16.23;;;11.45;;
16029;SDS011;34770;49.272;11.070;2023-10-19T12:46:53;12.80;;;10.25;;
16029;SDS011;34770;49.272;11.070;2023-10-19T12:49:19;14.30;;;11.30;;
16029;SDS011;34770;49.272;11.070;2023-10-19T12:51:50;13.90;;;11.90;;
16029;SDS011;34770;49.272;11.070;2023-10-19T12:54:17;11.38;;;10.18;;
16029;SDS011;34770;49.272;11.070;2023-10-19T12:56:42;11.93;;;10.13;;
16029;SDS011;34770;49.272;11.070;2023-10-19T12:59:08;13.75;;;10.95;;
16029;SDS011;34770;49.272;11.070;2023-10-19T13:01:34;12.20;;;9.70;;
16029;SDS011;34770;49.272;11.070;2023-10-19T13:04:00;13.35;;;10.32;;
16029;SDS011;34770;49.272;11.070;2023-10-19T13:06:31;11.00;;;9.50;;
16029;SDS011;34770;49.272;11.070;2023-10-19T13:08:58;13.77;;;12.20;;
16029;SDS011;34770;49.272;11.070;2023-10-19T13:11:23;16.15;;;11.60;;
16029;SDS011;34770;49.272;11.070;2023-10-19T13:13:49;13.50;;;11.02;;
16029;SDS011;34770;49.272;11.070;2023-10-19T13:16:14;12.35;;;10.20;;
16029;SDS011;34770;49.272;11.070;2023-10-19T13:18:40;14.13;;;9.68;;
16029;SDS011;34770;49.272;11.070;2023-10-19T13:21:06;15.43;;;10.32;;
16029;SDS011;34770;49.272;11.070;2023-10-19T13:23:34;14.52;;;11.00;;
16029;SDS011;34770;49.272;11.070;2023-10-19T13:26:00;12.05;;;9.65;;
16029;SDS011;34770;49.272;11.070;2023-10-19T13:28:33;10.98;;;9.88;;
16029;SDS011;34770;49.272;11.070;2023-10-19T13:31:00;13.50;;;9.27;;
16029;SDS011;34770;49.272;11.070;2023-10-19T13:33:25;11.25;;;10.05;;
16029;SDS011;34770;49.272;11.070;2023-10-19T13:35:51;16.08;;;11.52;;
16029;SDS011;34770;49.272;11.070;2023-10-19T13:38:17;12.50;;;9.52;;
16029;SDS011;34770;49.272;11.070;2023-10-19T13:40:44;12.02;;;9.82;;
16029;SDS011;34770;49.272;11.070;2023-10-19T13:43:11;14.15;;;10.60;;
16029;SDS011;34770;49.272;11.070;2023-10-19T13:45:41;13.52;;;11.10;;
16029;SDS011;34770;49.272;11.070;2023-10-19T13:48:11;13.70;;;10.75;;
16029;SDS011;34770;49.272;11.070;2023-10-19T13:50:55;13.68;;;12.25;;
16029;SDS011;34770;49.272;11.070;2023-10-19T13:53:25;12.52;;;10.35;;
16029;SDS011;34770;49.272;11.070;2023-10-19T13:55:51;11.13;;;9.90;;
16029;SDS011;34770;49.272;11.070;2023-10-19T13:58:16;12.10;;;10.63;;
16029;SDS011;34770;49.272;11.070;2023-10-19T14:00:42;16.13;;;12.35;;
16029;SDS011;34770;49.272;11.070;2023-10-19T14:03:12;15.80;;;11.88;;
16029;SDS011;34770;49.272;11.070;2023-10-19T14:08:05;14.65;;;13.23;;
16029;SDS011;34770;49.272;11.070;2023-10-19T14:10:32;15.15;;;11.93;;
16029;SDS011;34770;49.272;11.070;2023-10-19T14:12:58;14.90;;;9.70;;
16029;SDS011;34770;49.272;11.070;2023-10-19T14:15:23;12.45;;;9.77;;
16029;SDS011;34770;49.272;11.070;2023-10-19T14:17:50;11.13;;;9.88;;
16029;SDS011;34770;49.272;11.070;2023-10-19T14:20:16;11.95;;;10.70;;
16029;SDS011;34770;49.272;11.070;2023-10-19T14:22:43;10.57;;;9.50;;
16029;SDS011;34770;49.272;11.070;2023-10-19T14:25:10;12.07;;;9.95;;
16029;SDS011;34770;49.272;11.070;2023-10-19T14:27:43;16.52;;;13.73;;
16029;SDS011;34770;49.272;11.070;2023-10-19T14:30:10;28.33;;;22.65;;
16029;SDS011;34770;49.272;11.070;2023-10-19T14:32:41;15.25;;;12.27;;
16029;SDS011;34770;49.272;11.070;2023-10-19T14:35:08;12.73;;;10.68;;
16029;SDS011;34770;49.272;11.070;2023-10-19T14:37:40;33.25;;;23.63;;
16029;SDS011;34770;49.272;11.070;2023-10-19T14:40:08;68.50;;;42.47;;
16029;SDS011;34770;49.272;11.070;2023-10-19T14:42:39;33.13;;;23.88;;